createdAt,value
2019-02-07T00:00:56.654Z,13.20
2019-02-07T00:06:00.666Z,8.63
2019-02-07T00:11:04.686Z,6.40
2019-02-07T00:16:08.743Z,7.30
2019-02-07T00:21:12.763Z,6.97
2019-02-07T00:26:16.646Z,6.10
2019-02-07T00:31:20.682Z,6.47
2019-02-07T00:36:24.655Z,9.40
2019-02-07T00:41:28.760Z,8.27
2019-02-07T00:46:32.729Z,8.00
2019-02-07T00:51:36.772Z,5.67
2019-02-07T00:56:40.817Z,8.80
2019-02-07T01:01:44.913Z,9.60
2019-02-07T01:06:49.004Z,8.13
2019-02-07T01:11:53.024Z,10.23
2019-02-07T01:16:57.107Z,9.23
2019-02-07T01:22:01.175Z,7.53
2019-02-07T01:27:05.202Z,9.73
2019-02-07T01:32:09.807Z,9.13
2019-02-07T01:37:13.813Z,8.17
2019-02-07T01:42:18.339Z,10.60
2019-02-07T01:47:22.814Z,7.87
2019-02-07T01:52:26.851Z,7.53
2019-02-07T01:57:30.967Z,10.10
2019-02-07T02:02:35.099Z,8.53
2019-02-07T02:07:39.424Z,12.87
2019-02-07T02:12:43.723Z,10.47
2019-02-07T02:17:48.390Z,10.30
2019-02-07T02:22:53.803Z,8.80
2019-02-07T02:27:57.852Z,10.60
2019-02-07T02:33:01.916Z,10.67
2019-02-07T02:38:05.947Z,9.47
2019-02-07T02:43:11.043Z,8.70
2019-02-07T02:48:15.460Z,12.90
2019-02-07T02:53:19.516Z,6.63
2019-02-07T02:58:23.498Z,9.57
2019-02-07T03:03:55.476Z,9.80
2019-02-07T03:09:30.772Z,10.80
2019-02-07T03:14:52.075Z,8.90
2019-02-07T03:20:13.802Z,7.50
2019-02-07T03:25:35.916Z,10.70
2019-02-07T03:31:08.252Z,11.57
2019-02-07T03:36:49.614Z,10.83
2019-02-07T03:42:13.491Z,13.10
2019-02-07T03:47:36.607Z,10.10
2019-02-07T03:53:00.139Z,12.33
2019-02-07T03:58:25.568Z,13.97
2019-02-07T04:03:46.305Z,12.10
2019-02-07T04:09:09.432Z,11.23
2019-02-07T04:14:32.561Z,9.00
2019-02-07T04:19:54.638Z,9.07
2019-02-07T04:25:21.059Z,12.33
2019-02-07T04:30:40.120Z,13.33
2019-02-07T04:36:09.053Z,11.90
2019-02-07T04:41:21.250Z,8.77
2019-02-07T04:46:44.933Z,9.93
2019-02-07T04:52:11.106Z,8.50
2019-02-07T04:57:28.411Z,8.03
2019-02-07T05:03:00.992Z,9.63
2019-02-07T05:08:24.131Z,10.17
2019-02-07T05:13:53.208Z,8.00
2019-02-07T05:19:16.299Z,7.57
2019-02-07T05:24:39.982Z,7.13
2019-02-07T05:29:54.435Z,6.67
2019-02-07T05:35:29.892Z,6.80
2019-02-07T05:41:02.107Z,8.60
2019-02-07T05:46:13.341Z,5.67
2019-02-07T05:51:42.569Z,6.57
2019-02-07T05:57:11.612Z,7.93
2019-02-07T06:02:28.631Z,6.40
2019-02-07T06:07:54.569Z,5.83
2019-02-07T06:13:26.699Z,4.67
2019-02-07T06:18:52.612Z,4.13
2019-02-07T06:24:33.958Z,7.10
2019-02-07T06:29:54.651Z,6.00
2019-02-07T06:35:20.535Z,5.10
2019-02-07T06:40:43.676Z,5.20
2019-02-07T06:46:10.028Z,4.90
2019-02-07T06:51:30.675Z,4.83
2019-02-07T06:57:04.021Z,6.90
2019-02-07T07:02:30.223Z,5.77
2019-02-07T07:08:03.060Z,4.80
2019-02-07T07:13:19.184Z,7.00
2019-02-07T07:19:00.491Z,10.60
2019-02-07T07:24:22.515Z,8.03
2019-02-07T07:29:44.747Z,8.20
2019-02-07T07:35:06.455Z,9.17
2019-02-07T07:40:21.491Z,12.20
2019-02-07T07:45:35.342Z,9.50
2019-02-07T07:50:51.974Z,12.67
2019-02-07T07:56:18.101Z,9.30
2019-02-07T08:01:40.172Z,10.30
2019-02-07T08:06:55.459Z,15.60
2019-02-07T08:12:13.203Z,11.10
2019-02-07T08:17:35.187Z,13.33
2019-02-07T08:23:07.567Z,12.27
2019-02-07T08:28:33.793Z,13.63
2019-02-07T08:33:55.833Z,17.07
2019-02-07T08:39:18.173Z,11.70
2019-02-07T08:44:32.948Z,12.57
2019-02-07T08:50:02.042Z,15.70
2019-02-07T08:55:28.329Z,13.37
2019-02-07T09:00:51.497Z,10.43
2019-02-07T09:06:13.538Z,11.73
2019-02-07T09:11:41.340Z,9.67
2019-02-07T09:16:56.518Z,9.47
2019-02-07T09:22:19.631Z,9.77
2019-02-07T09:27:45.511Z,10.47
2019-02-07T09:33:07.664Z,9.10
2019-02-07T09:38:36.930Z,11.57
2019-02-07T09:44:12.388Z,9.60
2019-02-07T09:49:35.499Z,8.63
2019-02-07T09:54:54.587Z,8.63
2019-02-07T10:00:26.979Z,8.87
2019-02-07T10:05:49.411Z,7.37
2019-02-07T10:11:12.526Z,8.30
2019-02-07T10:16:51.015Z,12.03
2019-02-07T10:22:17.132Z,6.80
2019-02-07T10:27:37.620Z,10.43
2019-02-07T10:32:50.689Z,8.93
2019-02-07T10:38:28.861Z,10.00
2019-02-07T10:43:56.974Z,8.40
2019-02-07T10:49:16.294Z,8.57
2019-02-07T10:54:38.353Z,7.73
2019-02-07T11:00:01.081Z,11.23
2019-02-07T11:05:31.760Z,8.13
2019-02-07T11:11:13.263Z,10.27
2019-02-07T11:16:45.709Z,8.77
2019-02-07T11:22:01.855Z,13.07
2019-02-07T11:27:43.192Z,9.80
2019-02-07T11:32:58.708Z,9.00
2019-02-07T11:38:20.579Z,13.27
2019-02-07T11:43:35.790Z,9.43
2019-02-07T11:49:07.306Z,14.67
2019-02-07T11:54:29.447Z,14.90
2019-02-07T11:59:55.738Z,17.20
2019-02-07T12:05:17.220Z,18.70
2019-02-07T12:10:39.673Z,19.80
2019-02-07T12:16:09.088Z,24.80
2019-02-07T12:21:31.231Z,33.87
2019-02-07T12:26:48.468Z,22.97
2019-02-07T12:32:20.631Z,14.47
2019-02-07T12:37:42.610Z,20.10
2019-02-07T12:43:04.745Z,20.37
2019-02-07T12:48:26.826Z,28.00
2019-02-07T12:53:48.881Z,20.93
2019-02-07T12:59:18.338Z,18.90
2019-02-07T13:04:50.709Z,22.50
2019-02-07T13:10:05.755Z,21.30
2019-02-07T13:15:32.904Z,17.87
2019-02-07T13:20:56.178Z,19.83
2019-02-07T13:26:18.548Z,12.77
2019-02-07T13:32:00.033Z,21.13
2019-02-07T13:37:17.291Z,15.33
2019-02-07T13:42:39.140Z,21.67
2019-02-07T13:48:08.375Z,22.13
2019-02-07T13:53:49.655Z,16.20
2019-02-07T13:59:02.381Z,19.03
2019-02-07T14:04:17.671Z,14.53
2019-02-07T14:09:38.691Z,22.63
2019-02-07T14:14:56.036Z,17.63
2019-02-07T14:20:27.957Z,23.87
2019-02-07T14:25:49.744Z,14.40
2019-02-07T14:31:20.100Z,16.50
2019-02-07T14:36:47.684Z,25.10
2019-02-07T14:42:07.889Z,14.63
2019-02-07T14:47:12.148Z,14.67
2019-02-07T14:52:16.766Z,18.20
2019-02-07T14:57:20.755Z,20.93
2019-02-07T15:02:24.895Z,12.90
2019-02-07T15:07:28.961Z,13.70
2019-02-07T15:12:33.032Z,18.23
2019-02-07T15:17:37.083Z,21.73
2019-02-07T15:22:41.355Z,19.40
2019-02-07T15:27:47.117Z,13.67
2019-02-07T15:32:51.184Z,11.07
2019-02-07T15:37:56.265Z,13.80
2019-02-07T15:43:00.406Z,13.80
2019-02-07T15:48:04.586Z,22.20
2019-02-07T15:53:10.009Z,11.03
2019-02-07T15:58:14.188Z,12.37
2019-02-07T16:03:43.639Z,17.20
2019-02-07T16:08:47.695Z,13.33
2019-02-07T16:13:52.028Z,28.63
2019-02-07T16:18:56.124Z,12.33
2019-02-07T16:24:01.194Z,9.00
2019-02-07T16:29:05.577Z,9.00
2019-02-07T16:34:09.700Z,8.90
2019-02-07T16:39:14.440Z,11.70
2019-02-07T16:44:18.580Z,14.07
2019-02-07T16:49:22.579Z,20.07
2019-02-07T16:54:26.680Z,14.37
2019-02-07T16:59:30.755Z,9.33
2019-02-07T17:04:34.826Z,10.17
2019-02-07T17:09:44.154Z,16.03
2019-02-07T17:14:48.472Z,12.23
2019-02-07T17:19:52.568Z,13.00
2019-02-07T17:24:56.650Z,21.90
2019-02-07T17:30:00.717Z,26.17
2019-02-07T17:35:06.292Z,13.13
2019-02-07T17:40:15.368Z,12.50
2019-02-07T17:45:22.611Z,6.67
2019-02-07T17:50:29.354Z,15.47
2019-02-07T17:55:33.502Z,9.77
2019-02-07T18:00:50.201Z,10.70
2019-02-07T18:05:54.259Z,15.50
2019-02-07T18:10:58.320Z,11.43
2019-02-07T18:16:02.427Z,7.57
2019-02-07T18:21:06.535Z,9.67
2019-02-07T18:26:10.582Z,10.30
2019-02-07T18:31:14.647Z,12.63
2019-02-07T18:36:18.705Z,11.37
2019-02-07T18:41:22.783Z,10.47
2019-02-07T18:46:26.874Z,13.40
2019-02-07T18:51:30.922Z,9.07
2019-02-07T18:56:34.952Z,12.80
2019-02-07T19:01:39.019Z,11.70
2019-02-07T19:06:43.119Z,5.10
2019-02-07T19:11:47.178Z,9.37
2019-02-07T19:16:51.561Z,7.97
2019-02-07T19:21:57.407Z,11.07
2019-02-07T19:27:01.347Z,13.47
2019-02-07T19:32:05.729Z,12.73
2019-02-07T19:37:09.823Z,8.30
2019-02-07T19:42:13.970Z,14.53
2019-02-07T19:47:18.096Z,4.60
2019-02-07T19:52:22.158Z,15.23
2019-02-07T19:57:26.140Z,9.90
2019-02-07T20:02:30.127Z,11.27
2019-02-07T20:07:34.171Z,5.90
2019-02-07T20:12:38.239Z,14.80
2019-02-07T20:17:42.290Z,12.10
2019-02-07T20:22:46.416Z,13.33
2019-02-07T20:27:50.571Z,8.07
2019-02-07T20:32:55.000Z,9.23
2019-02-07T20:37:59.068Z,13.47
2019-02-07T20:43:03.052Z,10.43
2019-02-07T20:48:08.819Z,4.57
2019-02-07T20:53:14.523Z,10.53
2019-02-07T20:58:18.574Z,10.47
2019-02-07T21:03:22.634Z,4.87
2019-02-07T21:08:26.602Z,9.70
2019-02-07T21:13:31.063Z,12.30
2019-02-07T21:18:34.995Z,10.13
2019-02-07T21:23:38.961Z,8.27
2019-02-07T21:28:43.032Z,9.33
2019-02-07T21:33:47.155Z,9.37
2019-02-07T21:38:51.320Z,8.97
2019-02-07T21:43:55.374Z,11.90
2019-02-07T21:48:59.498Z,7.90
2019-02-07T21:54:03.748Z,7.93
2019-02-07T21:59:07.995Z,6.30
2019-02-07T22:04:12.043Z,2.63
2019-02-07T22:09:16.083Z,9.30
2019-02-07T22:14:20.068Z,6.20
2019-02-07T22:19:24.147Z,8.63
2019-02-07T22:24:28.207Z,7.07
2019-02-07T22:29:32.736Z,4.23
2019-02-07T22:34:36.803Z,9.37
2019-02-07T22:39:40.848Z,11.17
2019-02-07T22:44:44.912Z,7.07
2019-02-07T22:49:48.951Z,7.83
2019-02-07T22:54:53.391Z,7.30
2019-02-07T22:59:57.544Z,5.17
2019-02-07T23:05:01.601Z,4.50
2019-02-07T23:10:07.091Z,7.60
2019-02-07T23:15:11.151Z,12.43
2019-02-07T23:20:15.713Z,7.33
2019-02-07T23:25:21.310Z,6.80
2019-02-07T23:30:26.339Z,14.33
2019-02-07T23:35:30.792Z,10.00
2019-02-07T23:40:34.847Z,4.77
2019-02-07T23:45:38.935Z,10.57
2019-02-07T23:50:43.954Z,8.80
2019-02-07T23:55:48.017Z,7.40
